sensor_id;sensor_type;location;lat;lon;timestamp;pressure;altitude;pressure_sealevel;temperature;humidity
84374;BME280;74563;52.206;14.630;2024-02-14T14:47:05;101539.06;;;14.52;67.07
84374;BME280;74563;52.206;14.630;2024-02-14T14:49:30;101531.97;;;14.27;67.20
84374;BME280;74563;52.206;14.630;2024-02-14T14:51:55;101545.41;;;14.68;66.37
84374;BME280;74563;52.206;14.630;2024-02-14T14:54:22;101517.78;;;14.51;66.17
84374;BME280;74563;52.206;14.630;2024-02-14T14:56:53;101540.81;;;15.17;64.28
84374;BME280;74563;52.206;14.630;2024-02-14T14:59:18;101539.97;;;15.24;64.02
84374;BME280;74563;52.206;14.630;2024-02-14T15:01:44;101537.28;;;15.24;64.26
84374;BME280;74563;52.206;14.630;2024-02-14T15:04:09;101536.69;;;14.90;65.60
84374;BME280;74563;52.206;14.630;2024-02-14T15:06:34;101532.56;;;15.50;63.38
84374;BME280;74563;52.206;14.630;2024-02-14T15:09:00;101511.31;;;15.17;63.87
84374;BME280;74563;52.206;14.630;2024-02-14T15:11:26;101512.84;;;15.19;64.03
84374;BME280;74563;52.206;14.630;2024-02-14T15:13:52;101534.81;;;15.70;62.61
84374;BME280;74563;52.206;14.630;2024-02-14T15:16:17;101512.53;;;16.00;61.67
84374;BME280;74563;52.206;14.630;2024-02-14T15:18:42;101517.56;;;15.01;64.71
84374;BME280;74563;52.206;14.630;2024-02-14T15:21:09;101545.03;;;15.19;65.10
84374;BME280;74563;52.206;14.630;2024-02-14T15:23:35;101539.69;;;15.03;65.58
84374;BME280;74563;52.206;14.630;2024-02-14T15:26:00;101548.75;;;14.94;66.44
84374;BME280;74563;52.206;14.630;2024-02-14T15:28:31;101552.13;;;14.55;67.75
84374;BME280;74563;52.206;14.630;2024-02-14T15:30:58;101529.50;;;14.50;67.83
84374;BME280;74563;52.206;14.630;2024-02-14T15:33:42;101515.78;;;14.77;67.12
84374;BME280;74563;52.206;14.630;2024-02-14T15:36:07;101547.59;;;14.80;67.45
84374;BME280;74563;52.206;14.630;2024-02-14T15:38:33;101562.16;;;14.62;68.02
84374;BME280;74563;52.206;14.630;2024-02-14T15:40:58;101549.13;;;14.67;67.83
84374;BME280;74563;52.206;14.630;2024-02-14T15:43:26;101554.59;;;15.22;66.18
84374;BME280;74563;52.206;14.630;2024-02-14T15:45:52;101552.78;;;14.90;67.53
84374;BME280;74563;52.206;14.630;2024-02-14T15:48:18;101545.91;;;14.95;67.07
84374;BME280;74563;52.206;14.630;2024-02-14T15:50:46;101548.09;;;14.60;68.69
84374;BME280;74563;52.206;14.630;2024-02-14T15:53:12;101531.19;;;14.67;67.39
84374;BME280;74563;52.206;14.630;2024-02-14T15:55:37;101552.28;;;14.62;68.85
84374;BME280;74563;52.206;14.630;2024-02-14T15:58:03;101559.81;;;14.75;68.86
84374;BME280;74563;52.206;14.630;2024-02-14T16:00:29;101540.72;;;14.37;69.82
84374;BME280;74563;52.206;14.630;2024-02-14T16:02:58;101562.66;;;14.89;68.32
84374;BME280;74563;52.206;14.630;2024-02-14T16:05:23;101550.44;;;14.79;68.54
84374;BME280;74563;52.206;14.630;2024-02-14T16:07:49;101545.75;;;14.48;68.94
84374;BME280;74563;52.206;14.630;2024-02-14T16:10:15;101550.13;;;14.74;68.50
84374;BME280;74563;52.206;14.630;2024-02-14T16:12:43;101569.44;;;14.11;72.04
84374;BME280;74563;52.206;14.630;2024-02-14T16:15:13;101561.31;;;13.87;72.32
84374;BME280;74563;52.206;14.630;2024-02-14T16:17:39;101547.25;;;13.77;72.40
84374;BME280;74563;52.206;14.630;2024-02-14T16:20:08;101561.25;;;13.71;73.24
84374;BME280;74563;52.206;14.630;2024-02-14T16:22:34;101552.34;;;14.04;71.92
84374;BME280;74563;52.206;14.630;2024-02-14T16:25:01;101553.06;;;14.30;71.16
84374;BME280;74563;52.206;14.630;2024-02-14T16:27:26;101571.41;;;14.09;72.52
84374;BME280;74563;52.206;14.630;2024-02-14T16:29:51;101566.28;;;14.24;71.30
84374;BME280;74563;52.206;14.630;2024-02-14T16:32:17;101564.16;;;14.43;70.69
84374;BME280;74563;52.206;14.630;2024-02-14T16:34:43;101578.91;;;14.72;69.71
84374;BME280;74563;52.206;14.630;2024-02-14T16:37:13;101557.78;;;14.44;70.19
84374;BME280;74563;52.206;14.630;2024-02-14T16:39:45;101571.22;;;14.52;70.17
84374;BME280;74563;52.206;14.630;2024-02-14T16:42:10;101562.50;;;14.59;69.84
84374;BME280;74563;52.206;14.630;2024-02-14T16:44:35;101574.56;;;14.54;70.38
84374;BME280;74563;52.206;14.630;2024-02-14T16:47:01;101585.94;;;14.65;70.04
84374;BME280;74563;52.206;14.630;2024-02-14T16:49:27;101586.34;;;14.12;71.87
84374;BME280;74563;52.206;14.630;2024-02-14T16:51:52;101566.44;;;13.72;74.24
84374;BME280;74563;52.206;14.630;2024-02-14T16:54:17;101578.25;;;14.53;71.36
84374;BME280;74563;52.206;14.630;2024-02-14T16:56:43;101574.88;;;14.68;70.26
84374;BME280;74563;52.206;14.630;2024-02-14T16:59:08;101576.38;;;15.11;68.46
84374;BME280;74563;52.206;14.630;2024-02-14T17:01:33;101573.84;;;14.36;71.11
84374;BME280;74563;52.206;14.630;2024-02-14T17:03:59;101586.53;;;14.18;72.31
84374;BME280;74563;52.206;14.630;2024-02-14T17:06:24;101527.34;;;13.45;73.84
84374;BME280;74563;52.206;14.630;2024-02-14T17:08:50;101586.53;;;14.18;72.94
84374;BME280;74563;52.206;14.630;2024-02-14T17:11:15;101575.91;;;14.75;70.25
84374;BME280;74563;52.206;14.630;2024-02-14T17:13:43;101583.09;;;14.42;71.63
84374;BME280;74563;52.206;14.630;2024-02-14T17:16:09;101582.63;;;14.87;69.53
84374;BME280;74563;52.206;14.630;2024-02-14T17:18:35;101589.00;;;14.78;69.91
84374;BME280;74563;52.206;14.630;2024-02-14T17:21:00;101586.66;;;14.99;69.15
84374;BME280;74563;52.206;14.630;2024-02-14T17:23:25;101588.97;;;15.26;67.50
84374;BME280;74563;52.206;14.630;2024-02-14T17:25:51;101590.81;;;15.01;68.91
84374;BME280;74563;52.206;14.630;2024-02-14T17:28:16;101564.16;;;14.51;70.75
84374;BME280;74563;52.206;14.630;2024-02-14T17:30:42;101588.44;;;14.42;70.88
84374;BME280;74563;52.206;14.630;2024-02-14T17:33:07;101576.91;;;14.66;70.20
84374;BME280;74563;52.206;14.630;2024-02-14T17:35:33;101575.59;;;14.78;69.61
84374;BME280;74563;52.206;14.630;2024-02-14T17:37:58;101591.84;;;14.84;69.86
84374;BME280;74563;52.206;14.630;2024-02-14T17:40:23;101577.91;;;14.97;68.45
84374;BME280;74563;52.206;14.630;2024-02-14T17:42:49;101589.97;;;15.17;68.40
84374;BME280;74563;52.206;14.630;2024-02-14T17:45:14;101595.19;;;14.94;68.83
84374;BME280;74563;52.206;14.630;2024-02-14T17:47:39;101568.34;;;14.78;69.21
84374;BME280;74563;52.206;14.630;2024-02-14T17:50:05;101563.72;;;15.60;66.68
84374;BME280;74563;52.206;14.630;2024-02-14T17:52:31;101590.31;;;14.82;69.09
84374;BME280;74563;52.206;14.630;2024-02-14T17:54:58;101564.88;;;14.03;71.88
84374;BME280;74563;52.206;14.630;2024-02-14T17:57:24;101589.31;;;14.00;73.42
84374;BME280;74563;52.206;14.630;2024-02-14T17:59:50;101589.63;;;14.39;71.70
84374;BME280;74563;52.206;14.630;2024-02-14T18:02:15;101584.44;;;14.54;71.00
84374;BME280;74563;52.206;14.630;2024-02-14T18:04:42;101544.09;;;14.64;69.77
84374;BME280;74563;52.206;14.630;2024-02-14T18:07:07;101600.00;;;14.42;71.87
84374;BME280;74563;52.206;14.630;2024-02-14T18:09:32;101600.34;;;14.47;71.32
84374;BME280;74563;52.206;14.630;2024-02-14T18:11:58;101574.22;;;14.66;70.39
84374;BME280;74563;52.206;14.630;2024-02-14T18:14:23;101584.63;;;14.93;69.64
84374;BME280;74563;52.206;14.630;2024-02-14T18:16:49;101588.78;;;14.71;70.82
84374;BME280;74563;52.206;14.630;2024-02-14T18:19:14;101583.47;;;14.95;69.70
84374;BME280;74563;52.206;14.630;2024-02-14T18:21:40;101593.25;;;14.22;72.81
84374;BME280;74563;52.206;14.630;2024-02-14T18:24:05;101579.94;;;14.95;69.29
84374;BME280;74563;52.206;14.630;2024-02-14T18:26:31;101583.63;;;14.70;70.17
84374;BME280;74563;52.206;14.630;2024-02-14T18:28:56;101587.53;;;14.17;73.00
84374;BME280;74563;52.206;14.630;2024-02-14T18:31:21;101591.31;;;14.57;71.28
84374;BME280;74563;52.206;14.630;2024-02-14T18:33:47;101590.94;;;14.43;72.18
84374;BME280;74563;52.206;14.630;2024-02-14T18:36:12;101588.34;;;14.26;72.68
84374;BME280;74563;52.206;14.630;2024-02-14T18:38:38;101580.66;;;14.15;73.20
84374;BME280;74563;52.206;14.630;2024-02-14T18:41:04;101590.91;;;13.85;74.36
84374;BME280;74563;52.206;14.630;2024-02-14T18:43:31;101580.91;;;14.45;71.67
84374;BME280;74563;52.206;14.630;2024-02-14T18:45:57;101597.34;;;14.08;73.59
84374;BME280;74563;52.206;14.630;2024-02-14T18:48:22;101561.31;;;13.95;72.86
84374;BME280;74563;52.206;14.630;2024-02-14T18:50:47;101606.22;;;13.67;75.43
84374;BME280;74563;52.206;14.630;2024-02-14T18:53:13;101585.94;;;14.65;70.40
84374;BME280;74563;52.206;14.630;2024-02-14T18:55:39;101592.22;;;14.15;72.45
84374;BME280;74563;52.206;14.630;2024-02-14T18:58:04;101584.03;;;14.33;71.86
84374;BME280;74563;52.206;14.630;2024-02-14T19:00:29;101587.25;;;13.86;73.47
84374;BME280;74563;52.206;14.630;2024-02-14T19:02:56;101582.78;;;13.61;74.88
84374;BME280;74563;52.206;14.630;2024-02-14T19:05:21;101601.91;;;14.08;73.02
84374;BME280;74563;52.206;14.630;2024-02-14T19:07:47;101583.44;;;13.97;73.60
84374;BME280;74563;52.206;14.630;2024-02-14T19:10:12;101586.81;;;14.81;69.69
84374;BME280;74563;52.206;14.630;2024-02-14T19:12:38;101570.97;;;14.22;71.60
84374;BME280;74563;52.206;14.630;2024-02-14T19:15:03;101583.03;;;13.84;73.34
84374;BME280;74563;52.206;14.630;2024-02-14T19:17:31;101601.91;;;14.08;72.71
84374;BME280;74563;52.206;14.630;2024-02-14T19:19:58;101603.72;;;14.82;69.36
84374;BME280;74563;52.206;14.630;2024-02-14T19:22:24;101597.34;;;14.67;70.14
84374;BME280;74563;52.206;14.630;2024-02-14T19:24:50;101605.28;;;14.26;71.27
84374;BME280;74563;52.206;14.630;2024-02-14T19:27:15;101598.16;;;14.35;71.29
84374;BME280;74563;52.206;14.630;2024-02-14T19:29:41;101578.25;;;14.45;70.90
84374;BME280;74563;52.206;14.630;2024-02-14T19:32:06;101596.75;;;14.31;71.65
84374;BME280;74563;52.206;14.630;2024-02-14T19:34:32;101600.00;;;14.42;70.57
84374;BME280;74563;52.206;14.630;2024-02-14T19:36:57;101596.31;;;14.43;70.50
84374;BME280;74563;52.206;14.630;2024-02-14T19:39:22;101591.25;;;14.32;71.46
84374;BME280;74563;52.206;14.630;2024-02-14T19:41:48;101581.75;;;14.54;70.96
84374;BME280;74563;52.206;14.630;2024-02-14T19:44:13;101574.41;;;14.72;69.15
84374;BME280;74563;52.206;14.630;2024-02-14T19:46:39;101573.56;;;14.64;69.49
84374;BME280;74563;52.206;14.630;2024-02-14T19:49:04;101586.97;;;14.88;69.07
84374;BME280;74563;52.206;14.630;2024-02-14T19:51:30;101590.47;;;14.72;69.15
84374;BME280;74563;52.206;14.630;2024-02-14T19:53:56;101594.38;;;14.20;71.47
84374;BME280;74563;52.206;14.630;2024-02-14T19:56:21;101593.66;;;14.68;69.35
84374;BME280;74563;52.206;14.630;2024-02-14T19:58:46;101590.47;;;14.48;70.09
84374;BME280;74563;52.206;14.630;2024-02-14T20:01:12;101597.00;;;15.10;67.92
84374;BME280;74563;52.206;14.630;2024-02-14T20:03:37;101593.66;;;14.51;70.66
84374;BME280;74563;52.206;14.630;2024-02-14T20:06:03;101599.41;;;14.23;70.81
84374;BME280;74563;52.206;14.630;2024-02-14T20:08:30;101532.41;;;14.06;70.34
84374;BME280;74563;52.206;14.630;2024-02-14T20:10:55;101594.56;;;14.18;71.71
84374;BME280;74563;52.206;14.630;2024-02-14T20:13:22;101604.97;;;13.87;72.67
84374;BME280;74563;52.206;14.630;2024-02-14T20:15:47;101596.13;;;13.95;71.81
84374;BME280;74563;52.206;14.630;2024-02-14T20:18:13;101607.81;;;13.52;73.72
84374;BME280;74563;52.206;14.630;2024-02-14T20:20:39;101592.81;;;14.43;69.89
84374;BME280;74563;52.206;14.630;2024-02-14T20:23:04;101556.25;;;13.42;72.77
84374;BME280;74563;52.206;14.630;2024-02-14T20:25:29;101596.19;;;14.03;71.43
84374;BME280;74563;52.206;14.630;2024-02-14T20:27:54;101597.47;;;13.57;73.24
84374;BME280;74563;52.206;14.630;2024-02-14T20:30:20;101606.47;;;13.82;72.38
84374;BME280;74563;52.206;14.630;2024-02-14T20:32:45;101593.69;;;13.68;72.59
84374;BME280;74563;52.206;14.630;2024-02-14T20:35:12;101610.47;;;14.28;70.51
84374;BME280;74563;52.206;14.630;2024-02-14T20:37:38;101604.34;;;13.93;71.58
84374;BME280;74563;52.206;14.630;2024-02-14T20:40:04;101610.81;;;13.83;71.82
84374;BME280;74563;52.206;14.630;2024-02-14T20:42:30;101606.13;;;13.25;73.92
84374;BME280;74563;52.206;14.630;2024-02-14T20:44:55;101593.81;;;13.32;73.68
84374;BME280;74563;52.206;14.630;2024-02-14T20:47:20;101589.78;;;13.96;71.09
84374;BME280;74563;52.206;14.630;2024-02-14T20:49:46;101609.69;;;14.35;70.13
84374;BME280;74563;52.206;14.630;2024-02-14T20:52:11;101596.94;;;13.87;71.64
84374;BME280;74563;52.206;14.630;2024-02-14T20:54:36;101599.03;;;14.10;70.58
84374;BME280;74563;52.206;14.630;2024-02-14T20:57:01;101619.03;;;13.89;71.22
84374;BME280;74563;52.206;14.630;2024-02-14T20:59:27;101619.13;;;13.72;72.30
84374;BME280;74563;52.206;14.630;2024-02-14T21:01:52;101610.09;;;13.73;71.88
84374;BME280;74563;52.206;14.630;2024-02-14T21:04:17;101606.06;;;13.35;73.65
84374;BME280;74563;52.206;14.630;2024-02-14T21:06:42;101617.81;;;13.76;72.23
84374;BME280;74563;52.206;14.630;2024-02-14T21:09:08;101612.81;;;13.81;71.61
84374;BME280;74563;52.206;14.630;2024-02-14T21:11:34;101610.66;;;13.50;72.63
84374;BME280;74563;52.206;14.630;2024-02-14T21:14:00;101600.13;;;13.91;71.13
84374;BME280;74563;52.206;14.630;2024-02-14T21:16:25;101603.22;;;14.12;69.98
84374;BME280;74563;52.206;14.630;2024-02-14T21:18:52;101616.06;;;13.67;71.46
84374;BME280;74563;52.206;14.630;2024-02-14T21:21:18;101583.84;;;13.42;71.90
84374;BME280;74563;52.206;14.630;2024-02-14T21:23:43;101614.91;;;14.03;70.39
84374;BME280;74563;52.206;14.630;2024-02-14T21:26:10;101617.63;;;13.69;71.62
84374;BME280;74563;52.206;14.630;2024-02-14T21:28:36;101588.72;;;13.81;70.70
84374;BME280;74563;52.206;14.630;2024-02-14T21:31:01;101615.47;;;13.81;71.22
84374;BME280;74563;52.206;14.630;2024-02-14T21:33:27;101592.16;;;13.31;72.60
84374;BME280;74563;52.206;14.630;2024-02-14T21:35:52;101603.88;;;13.64;71.56
84374;BME280;74563;52.206;14.630;2024-02-14T21:38:22;101591.09;;;13.92;70.31
84374;BME280;74563;52.206;14.630;2024-02-14T21:40:47;101607.69;;;14.37;68.51
84374;BME280;74563;52.206;14.630;2024-02-14T21:43:14;101597.91;;;14.20;69.15
84374;BME280;74563;52.206;14.630;2024-02-14T21:45:42;101594.53;;;14.10;69.66
84374;BME280;74563;52.206;14.630;2024-02-14T21:48:07;101614.97;;;14.19;69.33
84374;BME280;74563;52.206;14.630;2024-02-14T21:50:33;101615.13;;;13.76;70.88
84374;BME280;74563;52.206;14.630;2024-02-14T21:52:58;101602.16;;;13.89;70.56
84374;BME280;74563;52.206;14.630;2024-02-14T21:55:23;101608.78;;;14.27;68.54
84374;BME280;74563;52.206;14.630;2024-02-14T21:57:49;101615.72;;;13.95;69.77
84374;BME280;74563;52.206;14.630;2024-02-14T22:00:14;101606.84;;;13.95;69.89
84374;BME280;74563;52.206;14.630;2024-02-14T22:02:40;101608.72;;;14.02;69.66
84374;BME280;74563;52.206;14.630;2024-02-14T22:05:05;101604.53;;;14.00;69.54
84374;BME280;74563;52.206;14.630;2024-02-14T22:07:31;101612.09;;;14.04;69.49
84374;BME280;74563;52.206;14.630;2024-02-14T22:09:57;101612.53;;;13.92;70.27
84374;BME280;74563;52.206;14.630;2024-02-14T22:12:22;101577.47;;;14.19;68.55
84374;BME280;74563;52.206;14.630;2024-02-14T22:14:48;101602.59;;;14.18;68.78
84374;BME280;74563;52.206;14.630;2024-02-14T22:17:13;101613.22;;;14.36;68.62
84374;BME280;74563;52.206;14.630;2024-02-14T22:19:41;101604.88;;;13.97;69.73
84374;BME280;74563;52.206;14.630;2024-02-14T22:22:07;101605.47;;;13.83;69.75
84374;BME280;74563;52.206;14.630;2024-02-14T22:24:33;101615.56;;;13.97;70.34
84374;BME280;74563;52.206;14.630;2024-02-14T22:26:58;101611.41;;;14.02;69.41
84374;BME280;74563;52.206;14.630;2024-02-14T22:29:24;101601.78;;;13.84;70.37
84374;BME280;74563;52.206;14.630;2024-02-14T22:31:49;101610.03;;;14.40;68.25
84374;BME280;74563;52.206;14.630;2024-02-14T22:34:14;101591.81;;;14.52;67.42
84374;BME280;74563;52.206;14.630;2024-02-14T22:36:40;101601.34;;;13.96;69.82
84374;BME280;74563;52.206;14.630;2024-02-14T22:39:05;101609.75;;;14.10;68.99
84374;BME280;74563;52.206;14.630;2024-02-14T22:41:32;101615.91;;;13.94;70.54
84374;BME280;74563;52.206;14.630;2024-02-14T22:43:59;101619.50;;;14.19;68.71
84374;BME280;74563;52.206;14.630;2024-02-14T22:46:24;101603.53;;;14.51;67.73
84374;BME280;74563;52.206;14.630;2024-02-14T22:48:50;101596.22;;;14.11;69.86
84374;BME280;74563;52.206;14.630;2024-02-14T22:51:16;101603.72;;;14.82;67.36
84374;BME280;74563;52.206;14.630;2024-02-14T22:53:42;101594.31;;;15.18;65.59
84374;BME280;74563;52.206;14.630;2024-02-14T22:56:07;101561.91;;;14.23;68.32
84374;BME280;74563;52.206;14.630;2024-02-14T22:58:34;101601.88;;;14.82;67.58
84374;BME280;74563;52.206;14.630;2024-02-14T23:01:02;101608.75;;;14.11;69.81
84374;BME280;74563;52.206;14.630;2024-02-14T23:03:28;101584.25;;;15.36;65.10
84374;BME280;74563;52.206;14.630;2024-02-14T23:05:53;101592.16;;;14.73;67.43
84374;BME280;74563;52.206;14.630;2024-02-14T23:08:18;101608.94;;;14.17;70.22
84374;BME280;74563;52.206;14.630;2024-02-14T23:10:44;101601.47;;;14.29;70.03
84374;BME280;74563;52.206;14.630;2024-02-14T23:13:09;101608.09;;;14.17;70.65
84374;BME280;74563;52.206;14.630;2024-02-14T23:15:34;101608.75;;;15.01;67.32
84374;BME280;74563;52.206;14.630;2024-02-14T23:18:00;101613.28;;;14.84;67.66
84374;BME280;74563;52.206;14.630;2024-02-14T23:20:25;101598.69;;;15.11;66.63
84374;BME280;74563;52.206;14.630;2024-02-14T23:22:50;101605.41;;;14.91;67.21
84374;BME280;74563;52.206;14.630;2024-02-14T23:25:16;101608.41;;;15.20;66.32
84374;BME280;74563;52.206;14.630;2024-02-14T23:27:41;101611.13;;;14.88;67.91
84374;BME280;74563;52.206;14.630;2024-02-14T23:30:11;101618.47;;;15.26;66.75
84374;BME280;74563;52.206;14.630;2024-02-14T23:32:38;101612.09;;;15.19;66.50
84374;BME280;74563;52.206;14.630;2024-02-14T23:35:13;101605.72;;;15.20;66.27
84374;BME280;74563;52.206;14.630;2024-02-14T23:37:39;101605.06;;;14.94;66.73
84374;BME280;74563;52.206;14.630;2024-02-14T23:40:08;101614.78;;;15.19;66.04
84374;BME280;74563;52.206;14.630;2024-02-14T23:42:35;101609.06;;;14.57;68.51
84374;BME280;74563;52.206;14.630;2024-02-14T23:45:01;101608.38;;;14.47;69.33
84374;BME280;74563;52.206;14.630;2024-02-14T23:47:27;101591.66;;;14.53;68.61
84374;BME280;74563;52.206;14.630;2024-02-14T23:49:52;101594.00;;;14.89;67.63
84374;BME280;74563;52.206;14.630;2024-02-14T23:52:18;101593.16;;;14.72;68.21
84374;BME280;74563;52.206;14.630;2024-02-14T23:54:45;101595.53;;;14.67;68.57
84374;BME280;74563;52.206;14.630;2024-02-14T23:57:10;101603.03;;;14.55;69.79
84374;BME280;74563;52.206;14.630;2024-02-14T23:59:36;101609.72;;;14.68;68.63
